sensor_id;sensor_type;location;lat;lon;timestamp;pressure;altitude;pressure_sealevel;temperature
29701;BMP280;57917;51.380;-0.176;2023-04-21T00:16:44;101376.16;;;8.05
29701;BMP280;57917;51.380;-0.176;2023-04-21T00:22:58;101364.63;;;7.95
29701;BMP280;57917;51.380;-0.176;2023-04-21T00:36:39;101365.69;;;7.77
29701;BMP280;57917;51.380;-0.176;2023-04-21T00:42:59;101359.47;;;7.72
29701;BMP280;57917;51.380;-0.176;2023-04-21T00:55:59;101338.28;;;7.78
29701;BMP280;57917;51.380;-0.176;2023-04-21T01:01:49;101347.91;;;7.73
29701;BMP280;57917;51.380;-0.176;2023-04-21T01:07:39;101345.69;;;7.65
29701;BMP280;57917;51.380;-0.176;2023-04-21T01:13:26;101328.41;;;7.74
29701;BMP280;57917;51.380;-0.176;2023-04-21T01:19:27;101317.03;;;7.85
29701;BMP280;57917;51.380;-0.176;2023-04-21T01:26:05;101313.03;;;7.99
29701;BMP280;57917;51.380;-0.176;2023-04-21T01:46:29;101286.53;;;7.89
29701;BMP280;57917;51.380;-0.176;2023-04-21T01:59:28;101289.47;;;7.92
29701;BMP280;57917;51.380;-0.176;2023-04-21T02:06:16;101292.19;;;8.14
29701;BMP280;57917;51.380;-0.176;2023-04-21T02:12:14;101277.91;;;8.10
29701;BMP280;57917;51.380;-0.176;2023-04-21T02:18:06;101263.41;;;8.29
29701;BMP280;57917;51.380;-0.176;2023-04-21T02:24:17;101248.91;;;8.48
29701;BMP280;57917;51.380;-0.176;2023-04-21T02:30:05;101245.25;;;8.32
29701;BMP280;57917;51.380;-0.176;2023-04-21T02:35:52;101235.22;;;8.13
29701;BMP280;57917;51.380;-0.176;2023-04-21T02:41:39;101230.19;;;7.95
29701;BMP280;57917;51.380;-0.176;2023-04-21T02:47:26;101230.72;;;7.92
29701;BMP280;57917;51.380;-0.176;2023-04-21T02:53:22;101229.81;;;7.86
29701;BMP280;57917;51.380;-0.176;2023-04-21T02:59:10;101216.50;;;8.14
29701;BMP280;57917;51.380;-0.176;2023-04-21T03:05:14;101215.78;;;7.81
29701;BMP280;57917;51.380;-0.176;2023-04-21T03:11:13;101214.97;;;7.80
29701;BMP280;57917;51.380;-0.176;2023-04-21T03:17:43;101208.25;;;7.89
29701;BMP280;57917;51.380;-0.176;2023-04-21T03:23:30;101196.34;;;7.87
29701;BMP280;57917;51.380;-0.176;2023-04-21T03:29:59;101189.72;;;7.68
29701;BMP280;57917;51.380;-0.176;2023-04-21T03:36:39;101181.19;;;7.61
29701;BMP280;57917;51.380;-0.176;2023-04-21T03:42:46;101183.47;;;7.74
29701;BMP280;57917;51.380;-0.176;2023-04-21T03:48:40;101173.75;;;7.91
29701;BMP280;57917;51.380;-0.176;2023-04-21T03:54:27;101171.91;;;7.75
29701;BMP280;57917;51.380;-0.176;2023-04-21T04:00:14;101158.41;;;7.54
29701;BMP280;57917;51.380;-0.176;2023-04-21T04:06:02;101140.88;;;7.43
29701;BMP280;57917;51.380;-0.176;2023-04-21T04:11:52;101139.81;;;7.44
29701;BMP280;57917;51.380;-0.176;2023-04-21T04:17:39;101136.63;;;7.42
29701;BMP280;57917;51.380;-0.176;2023-04-21T04:23:33;101124.59;;;7.46
29701;BMP280;57917;51.380;-0.176;2023-04-21T04:29:25;101123.78;;;7.29
29701;BMP280;57917;51.380;-0.176;2023-04-21T04:35:12;101115.81;;;7.57
29701;BMP280;57917;51.380;-0.176;2023-04-21T04:41:00;101105.25;;;7.41
29701;BMP280;57917;51.380;-0.176;2023-04-21T04:46:50;101113.06;;;7.52
29701;BMP280;57917;51.380;-0.176;2023-04-21T04:52:45;101099.69;;;7.54
29701;BMP280;57917;51.380;-0.176;2023-04-21T04:58:33;101091.16;;;7.30
29701;BMP280;57917;51.380;-0.176;2023-04-21T05:04:44;101093.34;;;7.05
29701;BMP280;57917;51.380;-0.176;2023-04-21T05:10:52;101091.94;;;7.14
29701;BMP280;57917;51.380;-0.176;2023-04-21T05:16:48;101084.13;;;7.19
29701;BMP280;57917;51.380;-0.176;2023-04-21T05:29:28;101089.16;;;7.37
29701;BMP280;57917;51.380;-0.176;2023-04-21T05:36:02;101072.44;;;7.48
29701;BMP280;57917;51.380;-0.176;2023-04-21T05:42:27;101066.47;;;7.91
29701;BMP280;57917;51.380;-0.176;2023-04-21T05:48:20;101058.13;;;7.99
29701;BMP280;57917;51.380;-0.176;2023-04-21T05:54:34;101042.97;;;8.11
29701;BMP280;57917;51.380;-0.176;2023-04-21T06:01:03;101056.88;;;8.07
29701;BMP280;57917;51.380;-0.176;2023-04-21T06:07:25;101048.84;;;7.97
29701;BMP280;57917;51.380;-0.176;2023-04-21T06:13:44;101047.44;;;8.32
29701;BMP280;57917;51.380;-0.176;2023-04-21T06:19:36;101029.38;;;8.24
29701;BMP280;57917;51.380;-0.176;2023-04-21T06:26:07;101038.59;;;8.48
29701;BMP280;57917;51.380;-0.176;2023-04-21T06:32:12;101011.22;;;8.28
29701;BMP280;57917;51.380;-0.176;2023-04-21T06:38:10;101011.88;;;8.40
29701;BMP280;57917;51.380;-0.176;2023-04-21T06:44:25;101012.28;;;8.85
29701;BMP280;57917;51.380;-0.176;2023-04-21T06:51:24;100973.19;;;8.50
29701;BMP280;57917;51.380;-0.176;2023-04-21T06:58:33;100973.97;;;8.46
29701;BMP280;57917;51.380;-0.176;2023-04-21T07:12:20;100955.22;;;8.79
29701;BMP280;57917;51.380;-0.176;2023-04-21T07:19:08;100951.53;;;8.48
29701;BMP280;57917;51.380;-0.176;2023-04-21T07:25:07;100945.06;;;8.61
29701;BMP280;57917;51.380;-0.176;2023-04-21T07:30:54;100937.25;;;8.44
29701;BMP280;57917;51.380;-0.176;2023-04-21T07:45:56;100926.28;;;8.21
29701;BMP280;57917;51.380;-0.176;2023-04-21T07:52:23;100920.34;;;8.09
29701;BMP280;57917;51.380;-0.176;2023-04-21T08:13:00;100910.38;;;8.47
29701;BMP280;57917;51.380;-0.176;2023-04-21T08:19:26;100914.59;;;8.48
29701;BMP280;57917;51.380;-0.176;2023-04-21T08:25:13;100913.31;;;8.51
29701;BMP280;57917;51.380;-0.176;2023-04-21T08:31:01;100915.88;;;8.77
29701;BMP280;57917;51.380;-0.176;2023-04-21T08:36:49;100882.16;;;8.43
29701;BMP280;57917;51.380;-0.176;2023-04-21T08:42:39;100881.34;;;8.42
29701;BMP280;57917;51.380;-0.176;2023-04-21T08:48:37;100879.84;;;8.51
29701;BMP280;57917;51.380;-0.176;2023-04-21T08:54:28;100890.31;;;8.41
29701;BMP280;57917;51.380;-0.176;2023-04-21T09:15:50;100897.50;;;8.93
29701;BMP280;57917;51.380;-0.176;2023-04-21T09:30:05;100896.09;;;8.80
29701;BMP280;57917;51.380;-0.176;2023-04-21T09:43:50;100916.03;;;8.61
29701;BMP280;57917;51.380;-0.176;2023-04-21T09:50:14;100916.28;;;8.59
29701;BMP280;57917;51.380;-0.176;2023-04-21T09:57:15;100924.94;;;8.55
29701;BMP280;57917;51.380;-0.176;2023-04-21T10:55:32;100870.56;;;10.28
29701;BMP280;57917;51.380;-0.176;2023-04-21T11:24:24;100842.81;;;9.90
29701;BMP280;57917;51.380;-0.176;2023-04-21T11:47:41;100855.66;;;10.67
29701;BMP280;57917;51.380;-0.176;2023-04-21T11:53:28;100836.31;;;10.81
29701;BMP280;57917;51.380;-0.176;2023-04-21T11:59:17;100837.94;;;10.72
29701;BMP280;57917;51.380;-0.176;2023-04-21T12:05:12;100842.06;;;9.89
29701;BMP280;57917;51.380;-0.176;2023-04-21T12:11:01;100841.47;;;9.47
29701;BMP280;57917;51.380;-0.176;2023-04-21T12:16:57;100861.41;;;9.13
29701;BMP280;57917;51.380;-0.176;2023-04-21T12:22:44;100860.75;;;9.48
29701;BMP280;57917;51.380;-0.176;2023-04-21T12:28:31;100855.19;;;9.59
29701;BMP280;57917;51.380;-0.176;2023-04-21T12:34:18;100855.78;;;9.96
29701;BMP280;57917;51.380;-0.176;2023-04-21T12:40:06;100852.63;;;10.25
29701;BMP280;57917;51.380;-0.176;2023-04-21T12:52:34;100852.34;;;11.05
29701;BMP280;57917;51.380;-0.176;2023-04-21T13:06:58;100825.44;;;11.31
29701;BMP280;57917;51.380;-0.176;2023-04-21T13:13:24;100821.56;;;11.91
29701;BMP280;57917;51.380;-0.176;2023-04-21T13:19:19;100816.44;;;11.32
29701;BMP280;57917;51.380;-0.176;2023-04-21T13:25:13;100813.06;;;11.22
29701;BMP280;57917;51.380;-0.176;2023-04-21T13:31:45;100825.19;;;11.28
29701;BMP280;57917;51.380;-0.176;2023-04-21T13:37:44;100827.06;;;11.66
29701;BMP280;57917;51.380;-0.176;2023-04-21T13:43:32;100796.88;;;11.91
29701;BMP280;57917;51.380;-0.176;2023-04-21T13:49:32;100800.78;;;11.98
29701;BMP280;57917;51.380;-0.176;2023-04-21T13:55:40;100809.63;;;12.17
29701;BMP280;57917;51.380;-0.176;2023-04-21T14:01:39;100785.28;;;12.57
29701;BMP280;57917;51.380;-0.176;2023-04-21T14:07:44;100785.28;;;12.57
29701;BMP280;57917;51.380;-0.176;2023-04-21T14:13:36;100785.16;;;12.44
29701;BMP280;57917;51.380;-0.176;2023-04-21T14:19:34;100770.09;;;11.92
29701;BMP280;57917;51.380;-0.176;2023-04-21T14:25:25;100771.28;;;12.28
29701;BMP280;57917;51.380;-0.176;2023-04-21T14:31:13;100753.28;;;12.44
29701;BMP280;57917;51.380;-0.176;2023-04-21T14:44:55;100726.19;;;12.84
29701;BMP280;57917;51.380;-0.176;2023-04-21T14:58:37;100715.94;;;13.28
29701;BMP280;57917;51.380;-0.176;2023-04-21T15:13:12;100709.97;;;12.67
29701;BMP280;57917;51.380;-0.176;2023-04-21T15:18:59;100707.34;;;12.25
29701;BMP280;57917;51.380;-0.176;2023-04-21T15:24:47;100716.13;;;11.78
29701;BMP280;57917;51.380;-0.176;2023-04-21T15:30:38;100707.31;;;11.54
29701;BMP280;57917;51.380;-0.176;2023-04-21T15:36:26;100700.69;;;11.23
29701;BMP280;57917;51.380;-0.176;2023-04-21T15:42:13;100698.69;;;11.44
29701;BMP280;57917;51.380;-0.176;2023-04-21T15:48:00;100698.41;;;11.45
29701;BMP280;57917;51.380;-0.176;2023-04-21T15:53:50;100695.78;;;11.40
29701;BMP280;57917;51.380;-0.176;2023-04-21T15:59:37;100670.88;;;11.65
29701;BMP280;57917;51.380;-0.176;2023-04-21T16:05:24;100665.06;;;11.91
29701;BMP280;57917;51.380;-0.176;2023-04-21T16:11:15;100655.63;;;12.22
29701;BMP280;57917;51.380;-0.176;2023-04-21T16:17:15;100671.84;;;12.21
29701;BMP280;57917;51.380;-0.176;2023-04-21T16:23:02;100685.25;;;11.59
29701;BMP280;57917;51.380;-0.176;2023-04-21T16:28:51;100683.78;;;11.19
29701;BMP280;57917;51.380;-0.176;2023-04-21T16:34:41;100681.28;;;11.32
29701;BMP280;57917;51.380;-0.176;2023-04-21T16:40:29;100685.72;;;11.42
29701;BMP280;57917;51.380;-0.176;2023-04-21T16:46:16;100676.00;;;11.27
29701;BMP280;57917;51.380;-0.176;2023-04-21T16:52:07;100671.41;;;11.38
29701;BMP280;57917;51.380;-0.176;2023-04-21T16:57:54;100673.78;;;11.40
29701;BMP280;57917;51.380;-0.176;2023-04-21T17:03:41;100658.94;;;11.67
29701;BMP280;57917;51.380;-0.176;2023-04-21T17:09:29;100653.53;;;11.77
29701;BMP280;57917;51.380;-0.176;2023-04-21T17:15:18;100641.97;;;11.68
29701;BMP280;57917;51.380;-0.176;2023-04-21T17:21:07;100638.19;;;11.74
29701;BMP280;57917;51.380;-0.176;2023-04-21T17:26:54;100641.56;;;12.03
29701;BMP280;57917;51.380;-0.176;2023-04-21T17:32:42;100644.06;;;11.71
29701;BMP280;57917;51.380;-0.176;2023-04-21T17:38:32;100648.72;;;11.27
29701;BMP280;57917;51.380;-0.176;2023-04-21T17:44:19;100650.00;;;11.35
29701;BMP280;57917;51.380;-0.176;2023-04-21T17:50:07;100646.03;;;11.32
29701;BMP280;57917;51.380;-0.176;2023-04-21T17:55:55;100637.63;;;11.25
29701;BMP280;57917;51.380;-0.176;2023-04-21T18:01:43;100616.19;;;11.21
29701;BMP280;57917;51.380;-0.176;2023-04-21T18:07:30;100638.88;;;11.04
29701;BMP280;57917;51.380;-0.176;2023-04-21T18:13:17;100635.31;;;11.18
29701;BMP280;57917;51.380;-0.176;2023-04-21T18:19:04;100625.16;;;10.97
29701;BMP280;57917;51.380;-0.176;2023-04-21T18:24:52;100625.34;;;10.72
29701;BMP280;57917;51.380;-0.176;2023-04-21T18:30:39;100629.84;;;10.71
29701;BMP280;57917;51.380;-0.176;2023-04-21T18:36:26;100610.88;;;10.54
29701;BMP280;57917;51.380;-0.176;2023-04-21T18:42:17;100608.06;;;10.41
29701;BMP280;57917;51.380;-0.176;2023-04-21T18:48:08;100609.00;;;10.60
29701;BMP280;57917;51.380;-0.176;2023-04-21T18:53:55;100614.84;;;10.57
29701;BMP280;57917;51.380;-0.176;2023-04-21T18:59:42;100613.81;;;10.58
29701;BMP280;57917;51.380;-0.176;2023-04-21T19:05:31;100613.72;;;10.63
29701;BMP280;57917;51.380;-0.176;2023-04-21T19:11:20;100614.25;;;10.65
29701;BMP280;57917;51.380;-0.176;2023-04-21T19:17:09;100618.25;;;10.14
29701;BMP280;57917;51.380;-0.176;2023-04-21T19:22:56;100615.94;;;9.97
29701;BMP280;57917;51.380;-0.176;2023-04-21T19:28:43;100613.06;;;9.88
29701;BMP280;57917;51.380;-0.176;2023-04-21T19:34:30;100612.78;;;9.90
29701;BMP280;57917;51.380;-0.176;2023-04-21T19:40:18;100612.97;;;10.14
29701;BMP280;57917;51.380;-0.176;2023-04-21T19:46:04;100608.56;;;9.84
29701;BMP280;57917;51.380;-0.176;2023-04-21T19:51:52;100606.22;;;9.82
29701;BMP280;57917;51.380;-0.176;2023-04-21T19:57:44;100599.88;;;9.78
29701;BMP280;57917;51.380;-0.176;2023-04-21T20:03:31;100608.34;;;9.80
29701;BMP280;57917;51.380;-0.176;2023-04-21T20:09:19;100605.13;;;9.88
29701;BMP280;57917;51.380;-0.176;2023-04-21T20:15:07;100608.06;;;9.82
29701;BMP280;57917;51.380;-0.176;2023-04-21T20:20:54;100603.09;;;9.60
29701;BMP280;57917;51.380;-0.176;2023-04-21T20:26:53;100609.97;;;9.61
29701;BMP280;57917;51.380;-0.176;2023-04-21T20:33:13;100616.31;;;9.65
29701;BMP280;57917;51.380;-0.176;2023-04-21T20:39:13;100612.66;;;9.31
29701;BMP280;57917;51.380;-0.176;2023-04-21T20:45:41;100626.91;;;9.15
29701;BMP280;57917;51.380;-0.176;2023-04-21T20:53:15;100624.56;;;9.19
29701;BMP280;57917;51.380;-0.176;2023-04-21T21:00:26;100611.06;;;9.05
29701;BMP280;57917;51.380;-0.176;2023-04-21T21:24:40;100584.13;;;8.98
29701;BMP280;57917;51.380;-0.176;2023-04-21T21:46:15;100569.59;;;8.65
29701;BMP280;57917;51.380;-0.176;2023-04-21T21:53:13;100576.41;;;8.56
29701;BMP280;57917;51.380;-0.176;2023-04-21T21:59:36;100578.56;;;8.69
29701;BMP280;57917;51.380;-0.176;2023-04-21T22:05:23;100570.91;;;8.63
29701;BMP280;57917;51.380;-0.176;2023-04-21T22:11:10;100577.78;;;8.54
29701;BMP280;57917;51.380;-0.176;2023-04-21T22:16:57;100571.63;;;8.28
29701;BMP280;57917;51.380;-0.176;2023-04-21T22:22:46;100571.34;;;8.25
29701;BMP280;57917;51.380;-0.176;2023-04-21T22:28:33;100569.22;;;8.22
29701;BMP280;57917;51.380;-0.176;2023-04-21T22:34:21;100567.00;;;7.94
29701;BMP280;57917;51.380;-0.176;2023-04-21T22:40:09;100567.53;;;7.91
29701;BMP280;57917;51.380;-0.176;2023-04-21T22:46:24;100551.13;;;7.84
29701;BMP280;57917;51.380;-0.176;2023-04-21T22:52:11;100546.59;;;7.69
29701;BMP280;57917;51.380;-0.176;2023-04-21T23:22:08;100523.44;;;7.24
29701;BMP280;57917;51.380;-0.176;2023-04-21T23:27:55;100527.59;;;7.20
29701;BMP280;57917;51.380;-0.176;2023-04-21T23:33:41;100523.72;;;6.96
29701;BMP280;57917;51.380;-0.176;2023-04-21T23:39:31;100520.88;;;6.98
29701;BMP280;57917;51.380;-0.176;2023-04-21T23:45:19;100505.16;;;7.13
29701;BMP280;57917;51.380;-0.176;2023-04-21T23:51:09;100501.22;;;7.15
29701;BMP280;57917;51.380;-0.176;2023-04-21T23:56:57;100496.50;;;6.81
